Indian Grove, Missouri
Current Conditions -  °F | °C
As of 8:35 AM on Saturday 25 Oct 2014 (Local Time) from KVER Reporting Station
Moderate Fog Moderate Fog  
Wind Chill: 14°   Ceiling: 800
Heat Index: NA   Visibility: 0.25mi
Dew Point: 15°   Wind: 0mph
Humidity: NA   Direction: NA
Pressure: 30.05"   Gusts: NA
Location:  39.4474°N, 93.0872°W
Report Text: KVER 251335Z AUTO 00000KT 1/4SM FG BKN008 14/15 A3005 RMK AO2 T01440145
Loading
Personal Weather Stations






























Interactive Weather Map
Tropical Storm Tracking
New forecast layout! Learn more

10-Day Weather Forecast

Advertisements
Track Severe Weather on mobile